Time;durP1;ratioP1;P1;durP2;ratioP2;P2;SDS_P1;SDS_P2;PMS_P1;PMS_P2;Temp;Humidity;BMP_temperature;BMP_pressure;BME280_temperature;BME280_humidity;BME280_pressure;Samples;Min_cycle;Max_cycle;Signal;HPM_P1;HPM_P2
2022/07/19 00:01:53;;;;;;;7.73;5.47;;;22.00;72.50;;;;;;5048272;28;20459;-55
2022/07/19 00:04:20;;;;;;;10.00;5.00;;;22.00;72.60;;;;;;5052763;28;20503;-48
2022/07/19 00:06:49;;;;;;;10.60;5.70;;;21.90;72.80;;;;;;5055198;28;20508;-46
2022/07/19 00:09:18;;;;;;;11.97;6.30;;;21.90;73.10;;;;;;5055471;28;20451;-49
2022/07/19 00:11:44;;;;;;;7.37;4.93;;;21.90;73.00;;;;;;5044824;28;20528;-55
2022/07/19 00:14:11;;;;;;;7.43;5.90;;;21.90;73.20;;;;;;5052724;28;20496;-51
2022/07/19 00:16:38;;;;;;;8.23;5.47;;;21.90;73.20;;;;;;5055220;28;20464;-50
2022/07/19 00:19:05;;;;;;;6.77;5.17;;;21.80;73.60;;;;;;5048619;28;20583;-49
2022/07/19 00:21:32;;;;;;;6.97;5.50;;;21.80;73.80;;;;;;5049438;28;20433;-46
2022/07/19 00:24:00;;;;;;;10.53;6.03;;;21.80;73.90;;;;;;5054335;28;20460;-51
2022/07/19 00:26:27;;;;;;;9.80;5.80;;;21.80;74.50;;;;;;5055083;28;20444;-53
2022/07/19 00:28:55;;;;;;;9.07;5.23;;;21.70;74.70;;;;;;5044403;28;20464;-53
2022/07/19 00:31:21;;;;;;;6.83;4.97;;;21.70;74.80;;;;;;5054155;28;20460;-55
2022/07/19 00:33:48;;;;;;;10.47;6.53;;;21.70;74.70;;;;;;5055191;28;20447;-48
2022/07/19 00:36:15;;;;;;;6.07;5.33;;;21.70;75.40;;;;;;5054325;28;20495;-57
2022/07/19 00:38:42;;;;;;;7.77;5.17;;;21.70;74.60;;;;;;5054875;28;20543;-46
2022/07/19 00:41:15;;;;;;;7.20;5.40;;;21.70;74.80;;;;;;5054604;28;20479;-50
2022/07/19 00:43:43;;;;;;;8.27;6.37;;;21.70;74.60;;;;;;5054332;28;20429;-53
2022/07/19 00:46:13;;;;;;;7.13;5.10;;;21.80;75.50;;;;;;5054737;28;20444;-51
2022/07/19 00:48:40;;;;;;;9.70;5.57;;;21.70;75.10;;;;;;5056492;28;20475;-49
2022/07/19 00:51:07;;;;;;;9.23;5.20;;;21.70;75.10;;;;;;5059274;28;20444;-51
2022/07/19 00:53:36;;;;;;;8.40;5.20;;;21.70;75.10;;;;;;5058955;28;20515;-43
2022/07/19 00:56:05;;;;;;;7.00;5.30;;;21.60;75.50;;;;;;5052898;28;20488;-50
2022/07/19 00:58:34;;;;;;;7.43;4.87;;;21.60;75.90;;;;;;5052823;28;20579;-45
2022/07/19 01:01:02;;;;;;;8.37;5.70;;;21.50;76.10;;;;;;5058652;28;20499;-50
2022/07/19 01:03:29;;;;;;;6.10;4.73;;;21.50;76.00;;;;;;5058705;28;20468;-53
2022/07/19 01:05:56;;;;;;;5.27;4.03;;;21.50;75.80;;;;;;5049581;28;20478;-46
2022/07/19 01:08:23;;;;;;;6.53;5.07;;;21.50;76.50;;;;;;5058206;28;20476;-55
2022/07/19 01:10:53;;;;;;;6.00;4.70;;;21.40;76.80;;;;;;5059409;28;20464;-49
2022/07/19 01:13:19;;;;;;;8.47;4.73;;;21.40;77.00;;;;;;5059299;28;20456;-45
2022/07/19 01:15:48;;;;;;;7.33;4.30;;;21.30;77.20;;;;;;5059376;28;20467;-46
2022/07/19 01:18:15;;;;;;;5.37;3.53;;;21.30;76.70;;;;;;5058097;28;20598;-53
2022/07/19 01:20:41;;;;;;;6.67;4.40;;;21.30;77.20;;;;;;5058791;28;20452;-51
2022/07/19 01:23:13;;;;;;;6.73;4.27;;;21.30;76.90;;;;;;5059175;28;20495;-54
2022/07/19 01:25:40;;;;;;;6.33;4.80;;;21.40;76.90;;;;;;5058935;28;20475;-48
2022/07/19 01:28:08;;;;;;;6.33;3.93;;;21.30;77.00;;;;;;5059010;28;20495;-48
2022/07/19 01:30:35;;;;;;;3.83;3.33;;;21.30;76.60;;;;;;5059170;28;20512;-55
2022/07/19 01:33:03;;;;;;;5.80;3.97;;;21.40;75.60;;;;;;5058965;28;20460;-47
2022/07/19 01:35:30;;;;;;;7.33;3.50;;;21.30;76.70;;;;;;5058485;28;20470;-49
2022/07/19 01:37:57;;;;;;;6.57;4.10;;;21.30;76.10;;;;;;5058717;28;20551;-53
2022/07/19 01:40:26;;;;;;;4.17;3.30;;;21.30;76.00;;;;;;5058558;28;20424;-45
2022/07/19 01:42:53;;;;;;;4.87;3.80;;;21.30;76.50;;;;;;5058304;28;20436;-55
2022/07/19 01:45:22;;;;;;;5.00;4.03;;;21.30;77.00;;;;;;5057916;28;20437;-48
2022/07/19 01:47:49;;;;;;;7.93;5.30;;;21.30;77.20;;;;;;5057837;28;20444;-52
2022/07/19 01:50:18;;;;;;;9.50;6.90;;;21.30;77.30;;;;;;5057103;28;20464;-50
2022/07/19 01:52:45;;;;;;;4.57;3.90;;;21.30;76.40;;;;;;5059159;28;20436;-55
2022/07/19 01:55:12;;;;;;;5.30;3.60;;;21.30;77.30;;;;;;5058707;28;20548;-52
2022/07/19 01:57:40;;;;;;;4.43;3.37;;;21.30;77.40;;;;;;5058233;28;20491;-51
2022/07/19 02:00:08;;;;;;;7.90;4.07;;;21.30;77.70;;;;;;5057845;28;20476;-56
2022/07/19 02:02:35;;;;;;;4.43;3.40;;;21.20;77.50;;;;;;5058643;28;20451;-50
2022/07/19 02:05:03;;;;;;;6.60;4.13;;;21.20;77.40;;;;;;5058391;28;20436;-48
2022/07/19 02:07:30;;;;;;;4.47;3.50;;;21.20;77.80;;;;;;5057915;28;20461;-50
2022/07/19 02:09:57;;;;;;;4.97;4.20;;;21.20;78.00;;;;;;5057833;28;20511;-54
2022/07/19 02:12:24;;;;;;;6.53;3.27;;;21.10;77.40;;;;;;5057572;28;20490;-46
2022/07/19 02:14:54;;;;;;;4.40;3.00;;;21.10;77.60;;;;;;5057963;28;20524;-51
2022/07/19 02:17:21;;;;;;;7.10;3.90;;;21.10;78.00;;;;;;5057731;28;20476;-48
2022/07/19 02:19:48;;;;;;;10.60;5.00;;;21.10;78.10;;;;;;5057675;28;20494;-52
2022/07/19 02:22:14;;;;;;;4.27;3.23;;;21.10;78.20;;;;;;5057236;28;20515;-47
2022/07/19 02:24:42;;;;;;;4.80;3.63;;;21.10;78.90;;;;;;5057553;28;20464;-47
2022/07/19 02:27:10;;;;;;;3.57;3.27;;;21.00;79.00;;;;;;5057670;28;20444;-49
2022/07/19 02:29:37;;;;;;;9.70;3.80;;;21.00;79.40;;;;;;5057132;28;20452;-49
2022/07/19 02:32:06;;;;;;;5.93;3.87;;;21.00;79.40;;;;;;5057522;28;20537;-46
2022/07/19 02:34:34;;;;;;;5.00;4.17;;;20.90;80.00;;;;;;5057619;28;20516;-44
2022/07/19 02:37:01;;;;;;;6.13;4.10;;;20.90;80.50;;;;;;5057514;28;20456;-59
2022/07/19 02:39:28;;;;;;;5.50;4.00;;;20.90;81.10;;;;;;5057092;28;20500;-51
2022/07/19 02:41:54;;;;;;;4.67;3.77;;;20.80;81.60;;;;;;5057605;28;20415;-44
2022/07/19 02:44:21;;;;;;;6.43;4.00;;;20.80;82.30;;;;;;5057072;28;20519;-44
2022/07/19 02:46:48;;;;;;;4.37;3.93;;;20.70;82.70;;;;;;5057346;28;20499;-44
2022/07/19 02:49:17;;;;;;;4.60;4.00;;;20.70;83.10;;;;;;5057738;28;20432;-48
2022/07/19 02:51:44;;;;;;;6.70;4.27;;;20.70;83.50;;;;;;5057404;28;20543;-49
2022/07/19 02:54:11;;;;;;;5.33;3.83;;;20.60;83.90;;;;;;5057111;28;20464;-50
2022/07/19 02:56:37;;;;;;;5.57;3.83;;;20.60;84.50;;;;;;5057308;28;20479;-49
2022/07/19 02:59:05;;;;;;;5.20;3.90;;;20.60;85.50;;;;;;5056873;28;20535;-51
2022/07/19 03:01:32;;;;;;;5.93;4.93;;;20.60;85.70;;;;;;5053792;28;20523;-55
2022/07/19 03:03:59;;;;;;;6.10;3.87;;;20.50;85.60;;;;;;5048565;28;20512;-50
2022/07/19 03:06:28;;;;;;;6.87;4.47;;;20.50;85.90;;;;;;5048574;28;20519;-49
2022/07/19 03:08:55;;;;;;;5.80;4.50;;;20.50;86.50;;;;;;5056258;28;20475;-48
2022/07/19 03:11:26;;;;;;;19.07;4.10;;;20.50;86.90;;;;;;5055245;28;20467;-52
2022/07/19 03:13:53;;;;;;;5.53;3.90;;;20.50;87.00;;;;;;5056480;28;20472;-51
2022/07/19 03:16:22;;;;;;;6.03;4.63;;;20.50;87.40;;;;;;5056635;28;20508;-48
2022/07/19 03:18:49;;;;;;;10.73;4.77;;;20.50;88.40;;;;;;5056276;28;20499;-48
2022/07/19 03:21:15;;;;;;;5.57;4.43;;;20.50;89.10;;;;;;5055871;28;20467;-49
2022/07/19 03:23:43;;;;;;;5.73;4.10;;;20.40;89.30;;;;;;5055955;28;20543;-50
2022/07/19 03:26:10;;;;;;;10.43;4.17;;;20.50;89.90;;;;;;5055779;28;20511;-53
2022/07/19 03:28:37;;;;;;;6.80;4.43;;;20.50;90.10;;;;;;5056529;28;20439;-49
2022/07/19 03:31:04;;;;;;;8.93;4.23;;;20.50;90.60;;;;;;5056426;28;20590;-49
2022/07/19 03:33:31;;;;;;;5.30;4.00;;;20.50;90.90;;;;;;5056191;28;20451;-53
2022/07/19 03:35:58;;;;;;;5.60;4.37;;;20.40;91.50;;;;;;5056375;28;20535;-46
2022/07/19 03:38:25;;;;;;;5.97;5.00;;;20.50;91.90;;;;;;5056340;28;20475;-51
2022/07/19 03:40:53;;;;;;;9.73;5.20;;;20.50;92.30;;;;;;5055915;28;20491;-53
2022/07/19 03:43:23;;;;;;;7.00;4.87;;;20.50;93.10;;;;;;5055957;28;20451;-47
2022/07/19 03:45:50;;;;;;;6.73;4.80;;;20.50;93.20;;;;;;5056196;28;20472;-47
2022/07/19 03:48:21;;;;;;;8.03;5.07;;;20.40;93.70;;;;;;5055937;28;20442;-51
2022/07/19 03:50:48;;;;;;;6.30;4.13;;;20.40;94.20;;;;;;5055819;28;20472;-50
2022/07/19 03:53:14;;;;;;;9.30;5.43;;;20.40;95.00;;;;;;5056159;28;20440;-50
2022/07/19 03:55:41;;;;;;;7.43;5.30;;;20.40;95.40;;;;;;5055975;28;20495;-50
2022/07/19 03:58:09;;;;;;;6.30;4.90;;;20.40;95.90;;;;;;5055660;28;20488;-47
2022/07/19 04:00:36;;;;;;;7.90;4.90;;;20.40;96.20;;;;;;5055046;28;20523;-48
2022/07/19 04:03:03;;;;;;;9.20;4.80;;;20.30;96.90;;;;;;5055885;28;20531;-52
2022/07/19 04:05:30;;;;;;;9.33;4.93;;;20.30;97.40;;;;;;5055961;28;20455;-52
2022/07/19 04:07:57;;;;;;;5.47;4.60;;;20.30;97.50;;;;;;5055702;28;20492;-52
2022/07/19 04:10:24;;;;;;;7.23;5.10;;;20.30;98.30;;;;;;5055978;28;20479;-52
2022/07/19 04:12:51;;;;;;;7.50;5.23;;;20.40;98.70;;;;;;5055280;28;20443;-51
2022/07/19 04:15:19;;;;;;;6.00;4.60;;;20.40;99.20;;;;;;5055101;28;20467;-52
2022/07/19 04:17:49;;;;;;;7.70;5.23;;;20.40;99.90;;;;;;5055387;28;20444;-52
2022/07/19 04:20:16;;;;;;;8.30;5.20;;;20.40;99.90;;;;;;5055153;28;20544;-52
2022/07/19 04:22:42;;;;;;;6.90;5.33;;;20.40;99.90;;;;;;5054599;28;20512;-46
2022/07/19 04:25:10;;;;;;;8.47;5.70;;;20.50;99.90;;;;;;5055105;28;20547;-50
2022/07/19 04:27:37;;;;;;;10.00;5.90;;;20.50;99.90;;;;;;5054726;28;20534;-52
2022/07/19 04:30:05;;;;;;;6.40;5.03;;;20.50;99.90;;;;;;5054976;28;20467;-51
2022/07/19 04:32:33;;;;;;;7.80;5.10;;;20.50;99.90;;;;;;5055150;28;20448;-52
2022/07/19 04:35:00;;;;;;;6.53;5.20;;;20.50;99.90;;;;;;5055341;28;20436;-55
2022/07/19 04:37:27;;;;;;;10.23;5.03;;;20.50;99.90;;;;;;5054999;28;20543;-60
2022/07/19 04:39:54;;;;;;;10.93;6.40;;;20.50;99.90;;;;;;5055095;28;20471;-58
2022/07/19 04:42:23;;;;;;;7.70;5.97;;;20.60;99.90;;;;;;5055421;28;20483;-53
2022/07/19 04:44:50;;;;;;;10.47;5.80;;;20.60;99.90;;;;;;5054909;28;20456;-51
2022/07/19 04:47:17;;;;;;;7.37;4.87;;;20.60;99.90;;;;;;5055151;28;20461;-53
2022/07/19 04:49:45;;;;;;;9.83;5.70;;;20.60;99.90;;;;;;5054597;28;20444;-47
2022/07/19 04:52:24;;;;;;;9.90;4.70;;;20.70;99.90;;;;;;5055150;28;20456;-53
2022/07/19 04:54:51;;;;;;;9.70;4.90;;;20.70;99.90;;;;;;5055468;28;20439;-50
2022/07/19 04:57:17;;;;;;;5.40;4.13;;;20.80;99.90;;;;;;5055658;28;20457;-54
2022/07/19 04:59:44;;;;;;;6.27;4.07;;;20.80;99.90;;;;;;5055568;28;20467;-54
2022/07/19 05:02:11;;;;;;;6.97;4.70;;;20.90;99.90;;;;;;5055797;28;20472;-52
2022/07/19 05:04:38;;;;;;;5.60;4.10;;;20.90;99.90;;;;;;5055910;28;20474;-51
2022/07/19 05:07:06;;;;;;;9.97;4.50;;;21.00;99.60;;;;;;5056192;28;20536;-57
2022/07/19 05:09:33;;;;;;;5.93;4.50;;;21.00;99.90;;;;;;5056293;28;20532;-53
2022/07/19 05:12:05;;;;;;;6.60;4.23;;;21.10;99.10;;;;;;5055750;28;20468;-51
2022/07/19 05:14:31;;;;;;;6.67;4.37;;;21.10;99.00;;;;;;5054652;28;20459;-54
2022/07/19 05:16:58;;;;;;;7.60;4.13;;;21.20;98.70;;;;;;5054820;28;20479;-50
2022/07/19 05:19:25;;;;;;;5.67;3.93;;;21.20;98.40;;;;;;5054503;28;20544;-51
2022/07/19 05:21:52;;;;;;;5.80;4.00;;;21.30;98.30;;;;;;5054800;28;20466;-51
2022/07/19 05:24:20;;;;;;;8.80;4.13;;;21.30;97.40;;;;;;5054776;28;20512;-46
2022/07/19 05:26:47;;;;;;;5.90;4.10;;;21.30;97.30;;;;;;5054691;28;20492;-50
2022/07/19 05:29:14;;;;;;;6.90;3.93;;;21.40;97.10;;;;;;5054755;28;20445;-49
2022/07/19 05:31:41;;;;;;;8.13;4.70;;;21.50;96.70;;;;;;5054332;28;20468;-48
2022/07/19 05:34:07;;;;;;;10.03;4.30;;;21.50;96.50;;;;;;5055044;28;20464;-50
2022/07/19 05:36:34;;;;;;;8.83;4.90;;;21.60;96.30;;;;;;5058341;28;20455;-46
2022/07/19 05:39:04;;;;;;;5.97;4.40;;;21.60;96.30;;;;;;5057702;28;20444;-47
2022/07/19 05:41:33;;;;;;;12.47;4.17;;;21.60;96.10;;;;;;5057805;28;20428;-53
2022/07/19 05:44:00;;;;;;;9.43;4.70;;;21.70;96.10;;;;;;5058528;28;20542;-51
2022/07/19 05:46:26;;;;;;;8.37;5.40;;;21.80;96.10;;;;;;5058239;28;20430;-44
2022/07/19 05:48:53;;;;;;;10.53;5.20;;;21.80;96.00;;;;;;5057928;28;20474;-52
2022/07/19 05:51:20;;;;;;;6.87;4.63;;;21.80;96.40;;;;;;5053460;28;20966;-51
2022/07/19 05:53:47;;;;;;;7.47;4.67;;;21.90;96.40;;;;;;5051954;28;20466;-48
2022/07/19 05:56:14;;;;;;;5.43;3.10;;;21.90;96.40;;;;;;5058306;28;20463;-50
2022/07/19 05:58:42;;;;;;;4.00;3.10;;;22.00;96.10;;;;;;5048698;28;20454;-52
2022/07/19 06:01:23;;;;;;;5.67;3.57;;;22.10;96.00;;;;;;5057240;28;20543;-48
2022/07/19 06:03:51;;;;;;;5.43;3.53;;;22.10;95.70;;;;;;5057828;28;20483;-46
2022/07/19 06:06:19;;;;;;;5.10;3.67;;;22.20;95.60;;;;;;5058143;28;20436;-48
2022/07/19 06:08:46;;;;;;;7.50;5.00;;;22.30;95.30;;;;;;5058154;28;20536;-49
2022/07/19 06:11:13;;;;;;;6.37;4.23;;;22.30;95.30;;;;;;5058809;28;20448;-44
2022/07/19 06:13:41;;;;;;;13.03;4.93;;;22.40;95.60;;;;;;5058178;28;20464;-48
2022/07/19 06:16:08;;;;;;;7.80;3.70;;;22.50;95.40;;;;;;5058292;28;20504;-49
2022/07/19 06:18:36;;;;;;;4.87;3.90;;;22.60;95.10;;;;;;5058185;28;20524;-53
2022/07/19 06:21:04;;;;;;;9.33;4.30;;;22.70;94.50;;;;;;5057760;28;20476;-52
2022/07/19 06:23:31;;;;;;;13.77;4.47;;;22.80;93.40;;;;;;5057494;28;20468;-52
2022/07/19 06:25:58;;;;;;;5.97;3.90;;;22.90;92.90;;;;;;5058195;28;20453;-47
2022/07/19 06:28:27;;;;;;;3.90;3.23;;;23.00;92.70;;;;;;5058258;28;20523;-50
2022/07/19 06:30:55;;;;;;;8.97;3.83;;;23.10;92.60;;;;;;5057951;28;20531;-52
2022/07/19 06:33:22;;;;;;;9.57;3.80;;;23.20;92.20;;;;;;5050013;28;20468;-54
2022/07/19 06:35:49;;;;;;;7.00;3.20;;;23.30;91.00;;;;;;5057675;28;20444;-51
2022/07/19 06:38:16;;;;;;;4.30;3.33;;;23.40;90.80;;;;;;5057724;28;20470;-48
2022/07/19 06:40:43;;;;;;;3.80;2.90;;;23.50;90.60;;;;;;5046547;28;20460;-52
2022/07/19 06:43:10;;;;;;;7.07;3.13;;;23.60;88.00;;;;;;5054030;28;20512;-51
2022/07/19 06:45:38;;;;;;;6.37;3.10;;;23.80;87.20;;;;;;5056042;28;20449;-48
2022/07/19 06:48:07;;;;;;;3.90;2.90;;;23.80;87.00;;;;;;5057417;28;20463;-47
2022/07/19 06:50:34;;;;;;;5.17;3.00;;;24.00;86.80;;;;;;5057073;28;20456;-52
2022/07/19 06:53:01;;;;;;;4.57;2.90;;;24.00;86.90;;;;;;5057035;28;20439;-53
2022/07/19 06:55:28;;;;;;;5.60;4.17;;;24.10;85.70;;;;;;5045618;28;20487;-49
2022/07/19 06:57:55;;;;;;;7.70;4.90;;;24.20;85.80;;;;;;5048410;28;20547;-54
2022/07/19 07:00:22;;;;;;;6.73;3.70;;;24.30;85.30;;;;;;5053486;28;20527;-47
2022/07/19 07:02:49;;;;;;;9.17;5.83;;;24.40;84.10;;;;;;5056628;28;20444;-52
2022/07/19 07:05:17;;;;;;;4.03;2.77;;;24.50;83.70;;;;;;5056549;28;20492;-46
2022/07/19 07:07:44;;;;;;;5.00;3.40;;;24.60;81.80;;;;;;5049734;28;20440;-54
2022/07/19 07:10:11;;;;;;;8.23;3.77;;;24.70;81.80;;;;;;5056820;28;20999;-51
2022/07/19 07:12:41;;;;;;;5.93;3.30;;;24.90;80.20;;;;;;5050335;28;20502;-54
2022/07/19 07:15:09;;;;;;;3.20;2.63;;;25.10;79.50;;;;;;5050204;28;20459;-53
2022/07/19 07:17:36;;;;;;;5.47;3.30;;;25.30;79.70;;;;;;5045636;28;20440;-53
2022/07/19 07:20:05;;;;;;;3.77;2.77;;;25.50;78.40;;;;;;5054960;28;20512;-53
2022/07/19 07:22:34;;;;;;;3.97;2.70;;;25.70;78.40;;;;;;5055815;28;20463;-50
2022/07/19 07:25:01;;;;;;;8.93;3.33;;;26.40;75.40;;;;;;5051289;28;20559;-55
2022/07/19 07:27:28;;;;;;;8.40;3.40;;;27.60;71.90;;;;;;5048670;28;20528;-53
2022/07/19 07:29:55;;;;;;;2.77;2.30;;;29.20;67.10;;;;;;5056552;28;20484;-52
2022/07/19 07:32:22;;;;;;;3.13;2.50;;;31.10;61.00;;;;;;5056574;28;20444;-53
2022/07/19 07:34:49;;;;;;;11.90;2.73;;;33.00;55.50;;;;;;5056569;28;20496;-53
2022/07/19 07:37:16;;;;;;;7.93;4.00;;;34.70;51.30;;;;;;5056893;28;20503;-52
2022/07/19 07:39:44;;;;;;;5.70;2.83;;;36.40;47.10;;;;;;5056287;28;20495;-52
2022/07/19 07:42:11;;;;;;;9.00;3.70;;;37.80;43.20;;;;;;5056093;28;20436;-55
2022/07/19 07:44:38;;;;;;;6.73;3.30;;;38.80;40.70;;;;;;5055751;28;20460;-57
2022/07/19 07:47:08;;;;;;;5.23;3.03;;;39.60;39.50;;;;;;5056518;28;20416;-50
2022/07/19 07:49:35;;;;;;;6.13;3.40;;;40.20;37.40;;;;;;5056193;28;20494;-57
2022/07/19 07:52:01;;;;;;;5.33;3.20;;;40.90;37.10;;;;;;5054876;28;20523;-60
2022/07/19 07:54:29;;;;;;;4.10;3.67;;;41.70;35.80;;;;;;5053573;28;20523;-56
2022/07/19 07:56:57;;;;;;;5.80;3.47;;;42.40;34.50;;;;;;5054600;28;20443;-52
2022/07/19 07:59:24;;;;;;;4.80;3.70;;;43.00;33.70;;;;;;5054128;28;20467;-52
2022/07/19 08:01:50;;;;;;;4.80;3.67;;;43.30;33.20;;;;;;5055639;28;20530;-55
2022/07/19 08:04:17;;;;;;;8.03;4.00;;;43.60;32.70;;;;;;5055411;28;20416;-54
2022/07/19 08:06:44;;;;;;;4.77;3.60;;;43.60;31.80;;;;;;5054890;28;20519;-53
2022/07/19 08:09:11;;;;;;;7.73;4.17;;;43.60;31.70;;;;;;5055003;28;20471;-51
2022/07/19 08:11:38;;;;;;;5.13;3.87;;;43.50;32.00;;;;;;5055304;28;20514;-52
2022/07/19 08:14:06;;;;;;;8.20;4.03;;;43.40;31.60;;;;;;5055703;28;20474;-53
2022/07/19 08:16:33;;;;;;;4.70;3.83;;;43.30;31.80;;;;;;5055389;28;20431;-54
2022/07/19 08:19:00;;;;;;;4.00;3.40;;;43.40;31.50;;;;;;5055892;28;20455;-51
2022/07/19 08:21:29;;;;;;;6.80;3.70;;;43.30;31.00;;;;;;5055454;28;20579;-52
2022/07/19 08:23:56;;;;;;;4.57;3.30;;;43.20;31.40;;;;;;5055022;28;20448;-55
2022/07/19 08:26:23;;;;;;;4.47;3.43;;;43.00;31.10;;;;;;5055099;28;20811;-55
2022/07/19 08:28:50;;;;;;;8.83;7.13;;;42.90;31.50;;;;;;5055195;28;20470;-54
2022/07/19 08:31:18;;;;;;;10.90;3.90;;;42.60;31.30;;;;;;5055026;28;20472;-55
2022/07/19 08:33:45;;;;;;;4.93;4.40;;;42.50;31.60;;;;;;5055349;28;20940;-50
2022/07/19 08:36:12;;;;;;;7.60;4.77;;;42.50;31.80;;;;;;5055577;28;20456;-51
2022/07/19 08:38:40;;;;;;;7.83;4.60;;;42.50;31.80;;;;;;5055528;28;20434;-50
2022/07/19 08:41:09;;;;;;;7.23;5.13;;;42.50;31.80;;;;;;5055628;28;20496;-53
2022/07/19 08:43:36;;;;;;;6.00;4.90;;;42.40;31.50;;;;;;5055178;28;20451;-52
2022/07/19 08:46:04;;;;;;;7.57;4.90;;;42.20;31.20;;;;;;5055933;28;20495;-52
2022/07/19 08:48:34;;;;;;;5.80;4.70;;;42.10;31.90;;;;;;5055236;28;20451;-51
2022/07/19 08:51:01;;;;;;;7.60;3.40;;;42.00;32.40;;;;;;5055099;28;20548;-49
2022/07/19 08:53:32;;;;;;;5.90;4.57;;;42.00;31.80;;;;;;5054942;28;20546;-54
2022/07/19 08:55:59;;;;;;;6.00;4.93;;;42.00;31.80;;;;;;5054665;28;20462;-62
2022/07/19 08:58:25;;;;;;;6.10;3.33;;;42.10;31.50;;;;;;5055105;28;20455;-55
2022/07/19 09:00:52;;;;;;;5.03;3.87;;;42.20;31.70;;;;;;5054877;28;20529;-50
2022/07/19 09:03:19;;;;;;;4.90;3.47;;;42.20;31.30;;;;;;5055426;28;20522;-53
2022/07/19 09:05:48;;;;;;;7.40;3.90;;;42.10;31.80;;;;;;5054658;28;20456;-53
2022/07/19 09:08:16;;;;;;;12.63;5.97;;;42.10;31.30;;;;;;5055268;28;20488;-52
2022/07/19 09:11:13;;;;;;;6.83;5.10;;;42.10;31.90;;;;;;5058608;28;20438;-50
2022/07/19 09:13:33;;;;;;;4.27;3.73;;;42.10;31.90;;;;;;5058816;28;20543;-48
2022/07/19 09:16:00;;;;;;;7.40;4.20;;;42.10;31.30;;;;;;5058601;28;20464;-49
2022/07/19 09:18:28;;;;;;;5.90;4.67;;;42.20;31.10;;;;;;5058750;28;20478;-50
2022/07/19 09:20:58;;;;;;;7.03;5.30;;;42.40;30.60;;;;;;5058088;28;20519;-54
2022/07/19 09:23:26;;;;;;;4.63;3.30;;;42.30;30.40;;;;;;5058554;28;20446;-46
2022/07/19 09:25:55;;;;;;;4.33;3.67;;;42.20;30.30;;;;;;5058612;28;20463;-50
2022/07/19 09:28:24;;;;;;;6.60;4.00;;;42.30;30.90;;;;;;5058015;28;20428;-53
2022/07/19 09:30:53;;;;;;;4.33;3.43;;;42.20;31.60;;;;;;5058391;28;20456;-53
2022/07/19 09:33:21;;;;;;;8.80;3.33;;;42.20;31.00;;;;;;5058124;28;20448;-50
2022/07/19 09:35:50;;;;;;;5.70;3.43;;;42.10;31.40;;;;;;5058504;28;20428;-50
2022/07/19 09:38:24;;;;;;;5.03;3.00;;;42.20;30.80;;;;;;5057951;28;20463;-50
2022/07/19 09:40:53;;;;;;;4.80;3.10;;;42.10;29.40;;;;;;5058564;28;20494;-53
2022/07/19 09:43:22;;;;;;;5.60;3.33;;;42.00;30.90;;;;;;5057775;28;20464;-51
2022/07/19 09:45:50;;;;;;;4.30;3.03;;;42.10;30.80;;;;;;5058156;28;20440;-51
2022/07/19 09:48:17;;;;;;;3.57;3.10;;;41.90;30.00;;;;;;5058268;28;20452;-50
2022/07/19 09:50:47;;;;;;;5.30;3.50;;;42.00;30.40;;;;;;5058483;28;20463;-48
2022/07/19 09:53:15;;;;;;;5.33;3.70;;;41.90;31.30;;;;;;5058770;28;20511;-49
2022/07/19 09:55:44;;;;;;;4.13;3.73;;;42.00;31.30;;;;;;5058687;28;20441;-49
2022/07/19 09:58:11;;;;;;;5.97;3.47;;;42.10;32.00;;;;;;5058273;28;20472;-52
2022/07/19 10:00:39;;;;;;;4.43;2.97;;;42.10;30.00;;;;;;5058268;28;20440;-46
2022/07/19 10:03:10;;;;;;;3.73;2.90;;;42.20;30.90;;;;;;5058391;28;20470;-57
2022/07/19 10:05:38;;;;;;;4.43;3.03;;;42.00;32.10;;;;;;5058261;28;20543;-52
2022/07/19 10:08:06;;;;;;;4.20;3.03;;;42.00;30.60;;;;;;5057917;28;20453;-55
2022/07/19 10:10:33;;;;;;;3.27;2.97;;;41.90;30.40;;;;;;5058173;28;20424;-54
2022/07/19 10:13:03;;;;;;;5.03;3.50;;;41.90;30.70;;;;;;5057800;28;20444;-52
2022/07/19 10:15:35;;;;;;;3.20;2.90;;;41.80;31.70;;;;;;5053222;28;20440;-55
2022/07/19 10:18:10;;;;;;;3.60;3.30;;;41.70;30.30;;;;;;5051265;28;20530;-52
2022/07/19 10:20:38;;;;;;;3.70;3.40;;;41.60;31.70;;;;;;5046843;28;20436;-53
2022/07/19 10:23:06;;;;;;;3.80;3.40;;;41.60;30.10;;;;;;5058032;28;20480;-51
2022/07/19 10:25:40;;;;;;;4.40;3.50;;;41.40;30.80;;;;;;5056847;28;20476;-50
2022/07/19 10:28:28;;;;;;;3.73;3.00;;;41.30;31.50;;;;;;5046251;28;20952;-52
2022/07/19 10:30:56;;;;;;;3.90;3.10;;;41.00;29.90;;;;;;5055653;28;20417;-54
2022/07/19 10:33:32;;;;;;;5.13;3.00;;;40.50;30.60;;;;;;5056178;28;20540;-50
2022/07/19 10:35:59;;;;;;;3.90;3.30;;;40.30;31.40;;;;;;5057849;28;20482;-54
2022/07/19 10:38:26;;;;;;;3.53;3.07;;;40.20;31.60;;;;;;5057393;28;20496;-53
2022/07/19 10:40:56;;;;;;;3.53;3.23;;;40.20;31.00;;;;;;5057922;28;20425;-54
2022/07/19 10:43:27;;;;;;;4.60;3.60;;;40.10;30.70;;;;;;5057053;28;20471;-51
2022/07/19 10:46:11;;;;;;;3.87;3.47;;;40.00;31.40;;;;;;5057164;28;20484;-55
2022/07/19 10:48:39;;;;;;;5.93;3.23;;;39.80;31.20;;;;;;5054922;28;20511;-52
2022/07/19 10:51:07;;;;;;;3.97;3.00;;;39.60;32.50;;;;;;5052817;28;20459;-53
2022/07/19 10:53:59;;;;;;;4.33;3.03;;;39.40;30.90;;;;;;5055867;28;20554;-52
2022/07/19 10:56:35;;;;;;;3.30;2.33;;;39.20;31.60;;;;;;5056549;28;20448;-51
2022/07/19 10:59:07;;;;;;;3.40;2.77;;;38.90;31.40;;;;;;5055268;28;20464;-55
2022/07/19 11:01:35;;;;;;;3.63;2.80;;;38.70;31.60;;;;;;5051149;28;20480;-55
2022/07/19 11:04:29;;;;;;;4.00;2.83;;;38.50;31.80;;;;;;5048674;28;20472;-51
2022/07/19 11:07:17;;;;;;;3.93;2.90;;;38.40;31.80;;;;;;5054434;28;20424;-53
2022/07/19 11:09:52;;;;;;;3.13;2.80;;;38.40;31.30;;;;;;5053711;28;20456;-48
2022/07/19 11:12:31;;;;;;;4.10;2.80;;;38.40;31.20;;;;;;5054597;28;20439;-47
2022/07/19 11:15:02;;;;;;;5.10;2.87;;;38.30;30.70;;;;;;5051018;28;20490;-48
2022/07/19 11:17:29;;;;;;;3.30;3.00;;;38.10;31.10;;;;;;5050459;28;20747;-51
2022/07/19 11:20:16;;;;;;;3.93;2.83;;;37.90;31.80;;;;;;5053934;28;20468;-50
2022/07/19 11:22:47;;;;;;;3.33;3.00;;;37.80;32.10;;;;;;5048466;28;20472;-51
2022/07/19 11:25:16;;;;;;;4.20;3.03;;;37.80;32.50;;;;;;5053147;28;20439;-50
2022/07/19 11:27:44;;;;;;;6.10;2.70;;;37.70;31.90;;;;;;5053964;28;20501;-54
2022/07/19 11:30:13;;;;;;;4.73;2.80;;;37.50;32.70;;;;;;5054058;28;20444;-50
2022/07/19 11:32:42;;;;;;;3.83;2.87;;;37.30;32.40;;;;;;5053632;28;20456;-49
2022/07/19 11:35:14;;;;;;;3.57;2.87;;;37.20;32.80;;;;;;5053620;28;20446;-53
2022/07/19 11:37:44;;;;;;;5.23;3.40;;;37.30;33.10;;;;;;5055165;28;20432;-53
2022/07/19 11:40:12;;;;;;;6.60;3.53;;;37.20;34.40;;;;;;5055506;28;20511;-51
2022/07/19 11:42:42;;;;;;;4.47;3.70;;;37.20;34.20;;;;;;5051946;28;20476;-52
2022/07/19 11:45:15;;;;;;;5.70;3.70;;;37.30;33.70;;;;;;5054484;28;20495;-46
2022/07/19 11:47:44;;;;;;;5.83;3.20;;;37.30;34.00;;;;;;5054619;28;20471;-53
2022/07/19 11:50:13;;;;;;;4.90;3.27;;;37.30;33.70;;;;;;5054822;28;20460;-46
2022/07/19 11:52:48;;;;;;;10.83;7.80;;;37.20;32.70;;;;;;5054773;28;20858;-54
2022/07/19 11:55:16;;;;;;;5.63;3.00;;;37.10;32.60;;;;;;5042613;28;20470;-51
2022/07/19 11:57:43;;;;;;;4.50;4.10;;;37.00;32.10;;;;;;5054085;28;20455;-49
2022/07/19 12:00:11;;;;;;;5.90;3.60;;;37.00;32.90;;;;;;5055863;28;20506;-48
2022/07/19 12:02:58;;;;;;;3.90;3.20;;;37.00;32.70;;;;;;5055106;28;20467;-52
2022/07/19 12:05:33;;;;;;;5.90;4.00;;;36.80;32.90;;;;;;5055110;28;20424;-54
2022/07/19 12:08:02;;;;;;;4.50;3.40;;;36.80;33.20;;;;;;5051452;28;20511;-50
2022/07/19 12:10:41;;;;;;;5.83;3.37;;;36.70;33.40;;;;;;5049292;28;20462;-50
2022/07/19 12:13:10;;;;;;;4.83;3.07;;;36.50;33.20;;;;;;5053444;28;20432;-52
2022/07/19 12:15:52;;;;;;;4.60;3.97;;;36.40;33.10;;;;;;5053956;28;20513;-50
2022/07/19 12:18:23;;;;;;;4.00;3.60;;;36.40;33.30;;;;;;5056425;28;20424;-47
2022/07/19 12:21:19;;;;;;;4.63;3.20;;;36.30;33.30;;;;;;5055917;28;20532;-49
2022/07/19 12:24:20;;;;;;;5.40;3.50;;;36.30;33.80;;;;;;5055938;28;20496;-55
2022/07/19 12:27:07;;;;;;;7.50;3.73;;;36.30;33.90;;;;;;5055298;28;20428;-47
2022/07/19 12:29:36;;;;;;;4.50;3.50;;;36.30;34.20;;;;;;5055077;28;20475;-54
2022/07/19 12:32:04;;;;;;;4.60;4.20;;;36.30;34.10;;;;;;5055509;28;20432;-45
2022/07/19 12:35:11;;;;;;;6.27;3.80;;;36.30;34.10;;;;;;5054610;28;20483;-51
2022/07/19 12:37:41;;;;;;;3.63;3.10;;;36.20;33.90;;;;;;5050214;28;20447;-52
2022/07/19 12:40:11;;;;;;;6.63;4.20;;;36.20;33.80;;;;;;5054823;28;20486;-53
2022/07/19 12:42:39;;;;;;;3.73;3.33;;;36.30;34.30;;;;;;5055044;28;20510;-52
2022/07/19 12:45:09;;;;;;;4.57;3.60;;;36.20;34.20;;;;;;5059154;28;20558;-52
2022/07/19 12:47:36;;;;;;;4.40;4.00;;;36.20;33.80;;;;;;5059373;28;20448;-51
2022/07/19 12:50:04;;;;;;;3.50;3.20;;;36.20;34.40;;;;;;5059638;28;20494;-51
2022/07/19 12:52:31;;;;;;;4.60;4.10;;;36.30;33.50;;;;;;5059385;28;20448;-47
2022/07/19 12:54:59;;;;;;;3.73;3.43;;;36.30;33.50;;;;;;5059022;28;20500;-52